SAS910 KEWR-EKCH
Flight info
| Callsign | SAS910 |
|---|---|
| Flight time | N/A |
| Altitude | 39000 |
| Route | MERIT DCT HFD DCT PUT DCT MIILS N865A DORYY/M082F390 DCT 5830N05000W 60N040W 61N030W 62N020W DCT RATSU/N0473F390 DCT DEVBI DCT KLONN DCT TESPI |
| Aircraft | A333/H-SDE3GHIJ2J3J5M1RVWXY/LB2D1 |
Departure
| Time | 2026-04-20 19:38 |
|---|---|
| Airport | Newark Liberty International Airport (KEWR) |
Arrival
| Time | N/A |
|---|---|
| Airport | Copenhagen Kastrup Airport (EKCH) |
| Time | Latitude | Longitude | Altitude | Speed | Heading |
|---|---|---|---|---|---|
| 2026-04-20 18:23 | 40.69262 | -74.17462 | 21 ft | 0 kts | 186° |
| 2026-04-20 19:17 | 40.69275 | -74.17460 | 24 ft | 4 kts | 179° |
| 2026-04-20 19:17 | 40.69302 | -74.17464 | 25 ft | 4 kts | 175° |
| 2026-04-20 19:17 | 40.69322 | -74.17463 | 25 ft | 4 kts | 185° |
| 2026-04-20 19:17 | 40.69343 | -74.17464 | 26 ft | 4 kts | 123° |
| 2026-04-20 19:18 | 40.69345 | -74.17467 | 22 ft | 4 kts | 103° |
| 2026-04-20 19:18 | 40.69338 | -74.17437 | 23 ft | 2 kts | 102° |
| 2026-04-20 19:18 | 40.69338 | -74.17436 | 22 ft | 4 kts | 102° |
| 2026-04-20 19:29 | 40.69338 | -74.17435 | 22 ft | 0 kts | 102° |
| 2026-04-20 19:30 | 40.69336 | -74.17423 | 21 ft | 2 kts | 102° |
| 2026-04-20 19:30 | 40.69330 | -74.17392 | 21 ft | 5 kts | 103° |
| 2026-04-20 19:30 | 40.69319 | -74.17344 | 23 ft | 6 kts | 115° |
| 2026-04-20 19:30 | 40.69298 | -74.17291 | 21 ft | 7 kts | 118° |
| 2026-04-20 19:31 | 40.69272 | -74.17233 | 25 ft | 7 kts | 120° |
| 2026-04-20 19:31 | 40.69251 | -74.17179 | 25 ft | 7 kts | 117° |
| 2026-04-20 19:31 | 40.69229 | -74.17122 | 23 ft | 8 kts | 114° |
| 2026-04-20 19:31 | 40.69191 | -74.17070 | 23 ft | 9 kts | 163° |
| 2026-04-20 19:32 | 40.69125 | -74.17098 | 26 ft | 12 kts | 205° |
| 2026-04-20 19:32 | 40.69037 | -74.17154 | 21 ft | 15 kts | 207° |
| 2026-04-20 19:32 | 40.68949 | -74.17210 | 25 ft | 13 kts | 203° |
| 2026-04-20 19:32 | 40.68873 | -74.17256 | 30 ft | 11 kts | 206° |
| 2026-04-20 19:33 | 40.68802 | -74.17302 | 27 ft | 12 kts | 206° |
| 2026-04-20 19:33 | 40.68730 | -74.17348 | 29 ft | 11 kts | 206° |
| 2026-04-20 19:33 | 40.68666 | -74.17389 | 30 ft | 10 kts | 206° |
| 2026-04-20 19:33 | 40.68602 | -74.17430 | 30 ft | 11 kts | 206° |
| 2026-04-20 19:34 | 40.68526 | -74.17479 | 28 ft | 14 kts | 206° |
| 2026-04-20 19:34 | 40.68432 | -74.17539 | 28 ft | 16 kts | 206° |
| 2026-04-20 19:34 | 40.68321 | -74.17608 | 29 ft | 19 kts | 205° |
| 2026-04-20 19:34 | 40.68197 | -74.17688 | 26 ft | 20 kts | 206° |
| 2026-04-20 19:35 | 40.68076 | -74.17765 | 24 ft | 19 kts | 205° |
| 2026-04-20 19:35 | 40.67960 | -74.17838 | 28 ft | 18 kts | 206° |
| 2026-04-20 19:35 | 40.67852 | -74.17907 | 27 ft | 17 kts | 206° |
| 2026-04-20 19:35 | 40.67746 | -74.17975 | 30 ft | 17 kts | 206° |
| 2026-04-20 19:36 | 40.67664 | -74.18026 | 26 ft | 12 kts | 206° |
| 2026-04-20 19:36 | 40.67587 | -74.18019 | 28 ft | 12 kts | 142° |
| 2026-04-20 19:36 | 40.67570 | -74.17929 | 26 ft | 10 kts | 56° |
| 2026-04-20 19:36 | 40.67591 | -74.17909 | 26 ft | 1 kts | 29° |
| 2026-04-20 19:37 | 40.67596 | -74.17906 | 26 ft | 1 kts | 29° |
| 2026-04-20 19:37 | 40.67696 | -74.17839 | 26 ft | 41 kts | 25° |
| 2026-04-20 19:37 | 40.68138 | -74.17561 | 24 ft | 99 kts | 26° |
| 2026-04-20 19:37 | 40.68907 | -74.17073 | 30 ft | 149 kts | 26° |
| 2026-04-20 19:38 | 40.69909 | -74.16412 | 491 ft | 161 kts | 24° |
| 2026-04-20 19:38 | 40.70869 | -74.15675 | 1370 ft | 162 kts | 36° |
| 2026-04-20 19:38 | 40.71701 | -74.14611 | 1926 ft | 175 kts | 40° |
| 2026-04-20 19:38 | 40.72613 | -74.13402 | 2264 ft | 196 kts | 41° |
| 2026-04-20 19:39 | 40.73613 | -74.12096 | 2694 ft | 213 kts | 42° |
| 2026-04-20 19:39 | 40.74700 | -74.10628 | 3086 ft | 233 kts | 41° |
| 2026-04-20 19:39 | 40.75963 | -74.09178 | 3535 ft | 246 kts | 27° |
| 2026-04-20 19:39 | 40.77614 | -74.08730 | 4177 ft | 244 kts | 351° |
| 2026-04-20 19:40 | 40.79248 | -74.09210 | 4996 ft | 245 kts | 348° |
| 2026-04-20 19:40 | 40.80970 | -74.09333 | 5701 ft | 251 kts | 357° |
| 2026-04-20 19:40 | 40.82733 | -74.09191 | 6490 ft | 257 kts | 13° |
| 2026-04-20 19:40 | 40.84301 | -74.08013 | 7220 ft | 267 kts | 42° |
| 2026-04-20 19:41 | 40.85284 | -74.05900 | 7819 ft | 283 kts | 72° |
| 2026-04-20 19:41 | 40.85338 | -74.03272 | 8457 ft | 293 kts | 104° |
| 2026-04-20 19:41 | 40.84631 | -74.00738 | 9245 ft | 295 kts | 116° |
| 2026-04-20 19:41 | 40.83674 | -73.98338 | 9979 ft | 297 kts | 124° |
| 2026-04-20 19:42 | 40.82576 | -73.95951 | 10365 ft | 312 kts | 126° |
| 2026-04-20 19:42 | 40.81388 | -73.93453 | 10628 ft | 330 kts | 122° |
| 2026-04-20 19:42 | 40.80524 | -73.90539 | 10829 ft | 353 kts | 104° |
| 2026-04-20 19:42 | 40.80428 | -73.87250 | 11069 ft | 374 kts | 81° |
| 2026-04-20 19:43 | 40.80891 | -73.85022 | 11309 ft | 383 kts | 67° |
| 2026-04-20 19:43 | 40.82860 | -73.81070 | 12113 ft | 388 kts | 44° |
| 2026-04-20 19:43 | 40.84778 | -73.78605 | 12790 ft | 390 kts | 40° |
| 2026-04-20 19:43 | 40.86812 | -73.76211 | 13446 ft | 393 kts | 39° |
| 2026-04-20 19:44 | 40.88902 | -73.73812 | 14070 ft | 398 kts | 39° |
| 2026-04-20 19:44 | 40.91002 | -73.71393 | 14635 ft | 402 kts | 39° |
| 2026-04-20 19:44 | 40.93110 | -73.68928 | 15223 ft | 406 kts | 39° |
| 2026-04-20 19:44 | 40.95217 | -73.66425 | 15831 ft | 408 kts | 40° |
| 2026-04-20 19:45 | 40.97305 | -73.63911 | 16381 ft | 413 kts | 40° |
| 2026-04-20 19:45 | 40.99441 | -73.61328 | 16873 ft | 418 kts | 40° |
| 2026-04-20 19:45 | 41.01602 | -73.58704 | 17476 ft | 421 kts | 40° |
| 2026-04-20 19:45 | 41.03759 | -73.56079 | 18118 ft | 422 kts | 40° |
| 2026-04-20 19:46 | 41.05935 | -73.53426 | 18656 ft | 425 kts | 40° |
| 2026-04-20 19:46 | 41.08095 | -73.50790 | 19121 ft | 428 kts | 40° |
| 2026-04-20 19:46 | 41.10299 | -73.48095 | 19587 ft | 430 kts | 40° |
| 2026-04-20 19:46 | 41.12504 | -73.45396 | 20062 ft | 433 kts | 40° |
| 2026-04-20 19:47 | 41.14706 | -73.42698 | 20506 ft | 436 kts | 40° |
| 2026-04-20 19:47 | 41.16938 | -73.39961 | 20959 ft | 438 kts | 40° |
| 2026-04-20 19:47 | 41.19182 | -73.37208 | 21440 ft | 441 kts | 40° |
| 2026-04-20 19:47 | 41.21441 | -73.34434 | 21914 ft | 442 kts | 41° |
| 2026-04-20 19:48 | 41.23703 | -73.31651 | 22356 ft | 444 kts | 41° |
| 2026-04-20 19:48 | 41.25977 | -73.28850 | 22766 ft | 447 kts | 41° |
| 2026-04-20 19:48 | 41.28279 | -73.26012 | 23094 ft | 452 kts | 41° |
| 2026-04-20 19:48 | 41.30593 | -73.23159 | 23523 ft | 455 kts | 41° |
| 2026-04-20 19:49 | 41.32901 | -73.20310 | 23934 ft | 457 kts | 41° |
| 2026-04-20 19:49 | 41.35241 | -73.17417 | 24243 ft | 461 kts | 41° |
| 2026-04-20 19:49 | 41.37474 | -73.14306 | 24556 ft | 466 kts | 49° |
| 2026-04-20 19:49 | 41.39399 | -73.10805 | 24916 ft | 469 kts | 55° |
| 2026-04-20 19:50 | 41.41183 | -73.07121 | 25195 ft | 473 kts | 57° |
| 2026-04-20 19:50 | 41.42880 | -73.03398 | 25488 ft | 477 kts | 58° |
| 2026-04-20 19:50 | 41.44571 | -72.99562 | 25775 ft | 481 kts | 59° |
| 2026-04-20 19:50 | 41.46253 | -72.95695 | 26068 ft | 484 kts | 59° |
| 2026-04-20 19:51 | 41.47949 | -72.91786 | 26239 ft | 490 kts | 59° |
| 2026-04-20 19:51 | 41.49666 | -72.87836 | 26470 ft | 495 kts | 59° |
| 2026-04-20 19:51 | 41.51413 | -72.83831 | 26784 ft | 498 kts | 59° |
| 2026-04-20 19:51 | 41.53143 | -72.79877 | 27074 ft | 501 kts | 59° |
| 2026-04-20 19:52 | 41.54905 | -72.75852 | 27358 ft | 504 kts | 59° |
| 2026-04-20 19:52 | 41.56685 | -72.71785 | 27645 ft | 507 kts | 59° |
| 2026-04-20 19:52 | 41.58472 | -72.67691 | 27921 ft | 511 kts | 59° |
| 2026-04-20 19:52 | 41.60271 | -72.63565 | 28186 ft | 514 kts | 59° |
| 2026-04-20 19:53 | 41.62059 | -72.59459 | 28424 ft | 517 kts | 59° |
| 2026-04-20 19:53 | 41.63883 | -72.55270 | 28573 ft | 523 kts | 59° |
| 2026-04-20 19:53 | 41.65742 | -72.51067 | 28818 ft | 527 kts | 59° |
| 2026-04-20 19:53 | 41.67643 | -72.46837 | 29157 ft | 529 kts | 58° |
| 2026-04-20 19:54 | 41.69550 | -72.42619 | 29565 ft | 529 kts | 58° |
| 2026-04-20 19:54 | 41.71438 | -72.38446 | 29960 ft | 530 kts | 59° |
| 2026-04-20 19:54 | 41.73345 | -72.34220 | 30290 ft | 531 kts | 59° |
| 2026-04-20 19:54 | 41.75255 | -72.29978 | 30585 ft | 532 kts | 59° |
| 2026-04-20 19:55 | 41.77164 | -72.25726 | 30932 ft | 531 kts | 59° |
| 2026-04-20 19:55 | 41.79070 | -72.21471 | 31204 ft | 532 kts | 59° |
| 2026-04-20 19:55 | 41.80973 | -72.17212 | 31469 ft | 533 kts | 60° |
| 2026-04-20 19:55 | 41.82875 | -72.12948 | 31845 ft | 532 kts | 60° |
| 2026-04-20 19:56 | 41.84747 | -72.08746 | 32290 ft | 529 kts | 60° |
| 2026-04-20 19:56 | 41.86632 | -72.04510 | 32652 ft | 528 kts | 60° |
| 2026-04-20 19:56 | 41.88521 | -72.00257 | 32950 ft | 528 kts | 60° |
| 2026-04-20 19:56 | 41.90402 | -71.96019 | 33241 ft | 528 kts | 60° |
| 2026-04-20 19:57 | 41.92261 | -71.91825 | 33532 ft | 528 kts | 61° |
| 2026-04-20 19:57 | 41.94301 | -71.87700 | 33727 ft | 532 kts | 53° |
| 2026-04-20 19:57 | 41.96796 | -71.83972 | 33826 ft | 536 kts | 43° |
| 2026-04-20 19:57 | 41.99713 | -71.80822 | 34163 ft | 536 kts | 36° |
| 2026-04-20 19:58 | 42.02751 | -71.77938 | 34453 ft | 534 kts | 34° |
| 2026-04-20 19:58 | 42.05804 | -71.75191 | 34651 ft | 534 kts | 32° |
| 2026-04-20 19:58 | 42.08940 | -71.72443 | 34833 ft | 535 kts | 32° |
| 2026-04-20 19:58 | 42.12077 | -71.69713 | 35039 ft | 535 kts | 32° |
| 2026-04-20 19:59 | 42.15172 | -71.67012 | 35260 ft | 535 kts | 32° |
| 2026-04-20 19:59 | 42.18291 | -71.64277 | 35511 ft | 535 kts | 32° |
| 2026-04-20 19:59 | 42.21402 | -71.61532 | 35699 ft | 534 kts | 32° |
| 2026-04-20 19:59 | 42.24519 | -71.58770 | 35885 ft | 535 kts | 32° |
| 2026-04-20 20:00 | 42.27643 | -71.55991 | 36059 ft | 536 kts | 31° |
| 2026-04-20 20:00 | 42.30725 | -71.53245 | 36175 ft | 538 kts | 31° |
| 2026-04-20 20:00 | 42.33848 | -71.50457 | 36320 ft | 539 kts | 32° |
| 2026-04-20 20:00 | 42.36969 | -71.47666 | 36588 ft | 537 kts | 31° |
| 2026-04-20 20:01 | 42.40089 | -71.44872 | 36800 ft | 536 kts | 31° |
| 2026-04-20 20:01 | 42.43214 | -71.42072 | 36983 ft | 536 kts | 31° |
| 2026-04-20 20:01 | 42.46327 | -71.39278 | 37205 ft | 536 kts | 31° |
| 2026-04-20 20:01 | 42.49440 | -71.36482 | 37458 ft | 536 kts | 31° |
| 2026-04-20 20:02 | 42.52514 | -71.33720 | 37662 ft | 536 kts | 31° |
| 2026-04-20 20:02 | 42.55636 | -71.30911 | 37840 ft | 536 kts | 31° |
| 2026-04-20 20:02 | 42.58049 | -71.28736 | 37949 ft | 536 kts | 31° |
| 2026-04-20 20:02 | 42.61172 | -71.25921 | 38131 ft | 537 kts | 31° |
| 2026-04-20 20:03 | 42.64276 | -71.23118 | 38324 ft | 536 kts | 31° |
| 2026-04-20 20:03 | 42.67352 | -71.20334 | 38475 ft | 536 kts | 31° |
| 2026-04-20 20:03 | 42.70474 | -71.17507 | 38624 ft | 537 kts | 31° |
| 2026-04-20 20:03 | 42.73578 | -71.14694 | 38749 ft | 537 kts | 30° |
| 2026-04-20 20:04 | 42.76715 | -71.11848 | 38868 ft | 537 kts | 31° |
| 2026-04-20 20:04 | 42.79831 | -71.09014 | 38994 ft | 538 kts | 31° |
| 2026-04-20 20:04 | 42.82917 | -71.06208 | 39142 ft | 537 kts | 31° |
| 2026-04-20 20:05 | 42.89129 | -71.00552 | 39180 ft | 535 kts | 31° |
| 2026-04-20 20:05 | 42.95276 | -70.94927 | 39160 ft | 535 kts | 31° |